Middlesex, North Carolina
Current Conditions -  °F | °C
As of 3:53 PM on Tuesday 21 Oct 2014 (Local Time) from KRWI Reporting Station
Few Clouds Few Clouds  
Wind Chill: 72°   Ceiling: Unl
Heat Index: 72°   Visibility: 10mi
Dew Point: 48°   Wind: 7mph
Humidity: 43%   Direction: 290°WNW
Pressure: 29.83"   Gusts: NA
Location:  35.79°N, 78.2°W
Report Text: KRWI 211953Z AUTO 29006KT 10SM FEW060 22/09 A2983 RMK AO2 SLP101 T02220089
Loading
Personal Weather Stations






























Interactive Weather Map
Tropical Storm Tracking
New forecast layout! Learn more

10-Day Weather Forecast

Advertisements
Track Severe Weather on mobile